createdAt,value
2018-12-08T00:00:59.730Z,99868.08
2018-12-08T00:03:28.047Z,99860.91
2018-12-08T00:05:56.410Z,99856.63
2018-12-08T00:08:24.885Z,99856.64
2018-12-08T00:10:53.251Z,99867.27
2018-12-08T00:13:21.791Z,99865.14
2018-12-08T00:15:50.240Z,99866.09
2018-12-08T00:18:18.606Z,99871.81
2018-12-08T00:23:28.280Z,99877.05
2018-12-08T00:25:56.890Z,99874.93
2018-12-08T00:28:25.424Z,99878.36
2018-12-08T00:31:11.104Z,99881.46
2018-12-08T00:33:39.717Z,99878.17
2018-12-08T00:36:08.357Z,99874.74
2018-12-08T00:38:36.784Z,99868.21
2018-12-08T00:41:05.398Z,99878.52
2018-12-08T00:43:33.811Z,99884.72
2018-12-08T00:48:44.893Z,99886.84
2018-12-08T00:51:13.477Z,99879.50
2018-12-08T00:53:42.168Z,99887.66
2018-12-08T00:56:10.653Z,99899.57
2018-12-08T00:58:39.630Z,99903.35
2018-12-08T01:03:53.749Z,99892.09
2018-12-08T01:06:22.339Z,99895.65
2018-12-08T01:08:50.902Z,99904.16
2018-12-08T01:11:19.494Z,99901.23
2018-12-08T01:16:30.202Z,99903.48
2018-12-08T01:18:58.875Z,99904.34
2018-12-08T01:21:27.372Z,99899.44
2018-12-08T01:23:56.033Z,99898.45
2018-12-08T01:26:24.617Z,99902.37
2018-12-08T01:31:35.395Z,99916.41
2018-12-08T01:36:46.215Z,99920.81
2018-12-08T01:39:14.683Z,99913.79
2018-12-08T01:41:43.412Z,99913.30
2018-12-08T01:44:12.197Z,99923.59
2018-12-08T01:46:41.174Z,99916.57
2018-12-08T01:49:10.102Z,99912.50
2018-12-08T01:51:39.197Z,99913.95
2018-12-08T01:56:49.908Z,99912.16
2018-12-08T01:59:18.419Z,99913.66
2018-12-08T02:01:46.959Z,99907.28
2018-12-08T02:04:15.396Z,99917.07
2018-12-08T02:06:43.991Z,99908.60
2018-12-08T02:09:14.447Z,99910.39
2018-12-08T02:11:45.135Z,99917.92
2018-12-08T02:14:13.813Z,99910.08
2018-12-08T02:19:24.506Z,99906.84
2018-12-08T02:21:52.907Z,99914.19
2018-12-08T02:24:21.257Z,99904.55
2018-12-08T02:26:49.628Z,99916.46
2018-12-08T02:29:18.086Z,99909.79
2018-12-08T02:31:46.921Z,99912.86
2018-12-08T02:34:15.856Z,99915.66
2018-12-08T02:39:26.175Z,99910.25
2018-12-08T02:41:54.637Z,99907.31
2018-12-08T02:47:04.769Z,99903.25
2018-12-08T02:49:33.114Z,99904.70
2018-12-08T02:52:01.511Z,99906.50
2018-12-08T02:54:29.857Z,99911.89
2018-12-08T02:59:40.147Z,99919.23
2018-12-08T03:04:50.479Z,99914.46
2018-12-08T03:07:22.567Z,99929.81
2018-12-08T03:09:50.879Z,99930.63
2018-12-08T03:15:03.580Z,99932.43
2018-12-08T03:17:32.193Z,99942.88
2018-12-08T03:20:00.793Z,99941.91
2018-12-08T03:22:30.076Z,99934.40
2018-12-08T03:27:36.973Z,99947.13
2018-12-08T03:30:05.677Z,99950.39
2018-12-08T03:32:34.025Z,99945.64
2018-12-08T03:35:02.629Z,99943.02
2018-12-08T03:37:30.953Z,99943.02
2018-12-08T03:39:59.369Z,99936.17
2018-12-08T03:42:27.790Z,99937.31
2018-12-08T03:47:38.198Z,99943.97
2018-12-08T03:50:07.238Z,99947.22
2018-12-08T03:55:17.383Z,99973.50
2018-12-08T03:57:45.762Z,99979.52
2018-12-08T04:00:14.146Z,99966.59
2018-12-08T04:02:42.859Z,99967.22
2018-12-08T04:05:11.338Z,99958.08
2018-12-08T04:07:40.024Z,99958.05
2018-12-08T04:10:08.536Z,99958.34
2018-12-08T04:12:36.882Z,99956.52
2018-12-08T04:15:06.394Z,99956.00
2018-12-08T04:20:16.594Z,99944.05
2018-12-08T04:25:26.774Z,99945.16
2018-12-08T04:27:55.277Z,99948.55
2018-12-08T04:30:23.793Z,99943.33
2018-12-08T04:32:52.182Z,99941.49
2018-12-08T04:35:20.634Z,99941.48
2018-12-08T04:40:31.056Z,99946.79
2018-12-08T04:42:59.423Z,99955.55
2018-12-08T04:45:27.797Z,99934.34
2018-12-08T04:47:56.327Z,99949.64
2018-12-08T04:53:06.480Z,99940.34
2018-12-08T04:55:34.817Z,99951.91
2018-12-08T04:58:03.190Z,99963.80
2018-12-08T05:00:31.607Z,99962.49
2018-12-08T05:03:00.403Z,99968.36
2018-12-08T05:05:28.785Z,99969.34
2018-12-08T05:07:57.134Z,99960.70
2018-12-08T05:10:25.508Z,99957.29
2018-12-08T05:12:53.836Z,99955.66
2018-12-08T05:18:04.116Z,99966.12
2018-12-08T05:20:32.667Z,99965.97
2018-12-08T05:25:42.786Z,99977.72
2018-12-08T05:28:11.385Z,99975.80
2018-12-08T05:30:39.880Z,99976.13
2018-12-08T05:33:08.461Z,99976.45
2018-12-08T05:35:36.977Z,99974.34
2018-12-08T05:40:47.177Z,99972.09
2018-12-08T05:45:57.531Z,99971.62
2018-12-08T05:48:25.926Z,99968.39
2018-12-08T05:50:54.279Z,99977.36
2018-12-08T05:56:04.405Z,99976.42
2018-12-08T05:58:33.272Z,99970.72
2018-12-08T06:01:01.808Z,99970.56
2018-12-08T06:03:30.112Z,99972.03
2018-12-08T06:08:46.540Z,99962.41
2018-12-08T06:11:15.032Z,99966.03
2018-12-08T06:13:43.460Z,99952.66
2018-12-08T06:16:11.831Z,99947.77
2018-12-08T06:18:40.206Z,99937.48
2018-12-08T06:21:08.588Z,99934.88
2018-12-08T06:23:36.912Z,99944.50
2018-12-08T06:26:21.066Z,99947.41
2018-12-08T06:28:53.730Z,99941.05
2018-12-08T06:31:22.220Z,99947.23
2018-12-08T06:33:50.634Z,99950.99
2018-12-08T06:36:19.103Z,99947.08
2018-12-08T06:38:47.486Z,99956.05
2018-12-08T06:41:16.042Z,99945.94
2018-12-08T06:43:44.518Z,99950.38
2018-12-08T06:46:13.069Z,99952.34
2018-12-08T06:48:41.475Z,99951.06
2018-12-08T06:51:10.008Z,99953.19
2018-12-08T06:53:38.451Z,99938.02
2018-12-08T06:56:06.935Z,99934.43
2018-12-08T06:58:35.740Z,99927.91
2018-12-08T07:01:04.252Z,99944.55
2018-12-08T07:03:32.859Z,99947.80
2018-12-08T07:06:01.327Z,99947.97
2018-12-08T07:08:29.997Z,99951.59
2018-12-08T07:10:58.541Z,99944.25
2018-12-08T07:13:26.871Z,99958.13
2018-12-08T07:15:56.256Z,99951.27
2018-12-08T07:18:26.267Z,99947.22
2018-12-08T07:20:55.065Z,99938.38
2018-12-08T07:23:23.572Z,99936.59
2018-12-08T07:25:51.934Z,99939.20
2018-12-08T07:28:21.327Z,99925.66
2018-12-08T07:30:49.879Z,99930.06
2018-12-08T07:36:00.025Z,99927.09
2018-12-08T07:38:28.936Z,99935.08
2018-12-08T07:40:57.313Z,99944.22
2018-12-08T07:43:25.906Z,99946.83
2018-12-08T07:45:55.306Z,99930.52
2018-12-08T07:48:23.939Z,99943.08
2018-12-08T07:50:52.349Z,99941.25
2018-12-08T07:56:02.638Z,99937.01
2018-12-08T07:58:30.947Z,99925.95
2018-12-08T08:00:59.657Z,99941.45
2018-12-08T08:03:28.055Z,99932.96
2018-12-08T08:05:56.490Z,99945.03
2018-12-08T08:08:24.872Z,99946.83
2018-12-08T08:10:53.413Z,99949.44
2018-12-08T08:13:21.805Z,99963.80
2018-12-08T08:15:50.190Z,99951.72
2018-12-08T08:21:01.453Z,99952.38
2018-12-08T08:23:29.801Z,99950.09
2018-12-08T08:28:39.939Z,99946.05
2018-12-08T08:31:08.370Z,99924.55
2018-12-08T08:33:36.759Z,99921.61
2018-12-08T08:36:05.115Z,99906.11
2018-12-08T08:41:16.283Z,99894.74
2018-12-08T08:43:44.787Z,99901.42
2018-12-08T08:46:13.315Z,99904.88
2018-12-08T08:48:41.861Z,99893.13
2018-12-08T08:56:20.070Z,99887.92
2018-12-08T09:01:30.381Z,99886.16
2018-12-08T09:03:59.034Z,99891.87
2018-12-08T09:09:09.486Z,99910.63
2018-12-08T09:16:47.687Z,99894.30
2018-12-08T09:19:16.063Z,99888.45
2018-12-08T09:21:44.499Z,99886.95
2018-12-08T09:24:13.062Z,99891.06
2018-12-08T09:29:23.280Z,99891.88
2018-12-08T09:31:51.816Z,99888.13
2018-12-08T09:37:02.494Z,99881.43
2018-12-08T09:39:30.948Z,99874.09
2018-12-08T09:41:59.403Z,99872.59
2018-12-08T09:44:28.242Z,99876.87
2018-12-08T09:46:56.642Z,99874.58
2018-12-08T09:52:06.829Z,99872.45
2018-12-08T09:57:17.065Z,99862.00
2018-12-08T09:59:45.531Z,99859.06
2018-12-08T10:02:13.975Z,99852.53
2018-12-08T10:04:42.411Z,99861.51
2018-12-08T10:07:10.991Z,99857.78
2018-12-08T10:09:39.381Z,99857.12
2018-12-08T10:12:07.887Z,99866.58
2018-12-08T10:17:22.130Z,99871.50
2018-12-08T10:19:50.523Z,99876.22
2018-12-08T10:25:01.269Z,99858.27
2018-12-08T10:27:29.707Z,99868.70
2018-12-08T10:29:58.252Z,99870.37
2018-12-08T10:32:26.668Z,99855.49
2018-12-08T10:34:55.074Z,99854.20
2018-12-08T10:37:23.631Z,99868.09
2018-12-08T10:39:52.084Z,99853.06
2018-12-08T10:42:20.575Z,99851.14
2018-12-08T10:44:48.958Z,99849.81
2018-12-08T10:49:59.734Z,99835.78
2018-12-08T10:55:11.028Z,99825.13
2018-12-08T10:57:39.461Z,99836.73
2018-12-08T11:00:13.380Z,99822.99
2018-12-08T11:05:36.265Z,99816.95
2018-12-08T11:08:04.654Z,99824.63
2018-12-08T11:10:33.298Z,99823.15
2018-12-08T11:13:02.185Z,99808.59
2018-12-08T11:15:30.530Z,99818.09
2018-12-08T11:20:41.020Z,99812.05
2018-12-08T11:23:09.353Z,99823.64
2018-12-08T11:28:19.514Z,99820.70
2018-12-08T11:30:47.840Z,99818.91
2018-12-08T11:33:16.214Z,99813.36
2018-12-08T11:35:45.178Z,99827.42
2018-12-08T11:38:13.691Z,99816.46
2018-12-08T11:40:42.110Z,99816.61
2018-12-08T11:43:10.493Z,99821.66
2018-12-08T11:48:20.643Z,99823.47
2018-12-08T11:50:49.070Z,99830.19
2018-12-08T11:53:17.432Z,99823.64
2018-12-08T11:55:45.843Z,99830.33
2018-12-08T11:58:14.360Z,99826.09
2018-12-08T12:00:42.713Z,99818.70
2018-12-08T12:03:11.157Z,99823.45
2018-12-08T12:08:21.660Z,99821.97
2018-12-08T12:10:50.059Z,99821.30
2018-12-08T12:13:18.514Z,99813.45
2018-12-08T12:15:47.076Z,99812.81
2018-12-08T12:18:15.600Z,99814.90
2018-12-08T12:20:44.077Z,99813.91
2018-12-08T12:23:12.542Z,99816.70
2018-12-08T12:25:41.102Z,99817.66
2018-12-08T12:28:11.160Z,99821.27
2018-12-08T12:30:39.933Z,99823.88
2018-12-08T12:33:08.299Z,99828.13
2018-12-08T12:35:36.923Z,99828.44
2018-12-08T12:38:06.514Z,99822.54
2018-12-08T12:40:35.243Z,99824.52
2018-12-08T12:43:03.747Z,99817.63
2018-12-08T12:45:32.163Z,99819.28
2018-12-08T12:48:00.805Z,99819.78
2018-12-08T12:50:29.282Z,99822.86
2018-12-08T12:52:57.634Z,99825.33
2018-12-08T12:55:26.072Z,99827.13
2018-12-08T12:57:54.467Z,99833.33
2018-12-08T13:00:22.932Z,99822.05
2018-12-08T13:02:51.459Z,99808.81
2018-12-08T13:05:20.013Z,99812.88
2018-12-08T13:07:49.298Z,99815.36
2018-12-08T13:10:17.962Z,99821.58
2018-12-08T13:12:46.471Z,99827.31
2018-12-08T13:15:18.817Z,99814.05
2018-12-08T13:17:47.256Z,99814.72
2018-12-08T13:20:16.564Z,99806.06
2018-12-08T13:22:45.822Z,99808.67
2018-12-08T13:25:24.046Z,99809.80
2018-12-08T13:27:52.434Z,99803.27
2018-12-08T13:30:21.097Z,99814.72
2018-12-08T13:32:49.540Z,99808.33
2018-12-08T13:35:59.408Z,99809.98
2018-12-08T13:38:28.246Z,99809.00
2018-12-08T13:40:57.137Z,99801.64
2018-12-08T13:43:25.596Z,99797.72
2018-12-08T13:45:54.205Z,99793.65
2018-12-08T13:48:24.593Z,99792.84
2018-12-08T13:50:53.602Z,99795.73
2018-12-08T13:53:22.342Z,99790.68
2018-12-08T13:55:51.487Z,99787.89
2018-12-08T13:58:20.038Z,99791.49
2018-12-08T14:00:48.463Z,99792.98
2018-12-08T14:03:17.087Z,99802.45
2018-12-08T14:05:45.498Z,99813.91
2018-12-08T14:08:14.084Z,99816.53
2018-12-08T14:10:42.479Z,99819.64
2018-12-08T14:13:10.848Z,99808.53
2018-12-08T14:15:40.540Z,99803.94
2018-12-08T14:18:09.243Z,99800.02
2018-12-08T14:20:37.853Z,99808.53
2018-12-08T14:23:06.257Z,99802.34
2018-12-08T14:25:34.813Z,99811.64
2018-12-08T14:28:03.598Z,99826.20
2018-12-08T14:30:32.169Z,99824.93
2018-12-08T14:33:00.846Z,99828.19
2018-12-08T14:35:29.582Z,99826.09
2018-12-08T14:37:58.140Z,99829.34
2018-12-08T14:40:26.577Z,99822.02
2018-12-08T14:45:37.231Z,99813.19
2018-12-08T14:48:05.728Z,99803.85
2018-12-08T14:50:34.202Z,99809.75
2018-12-08T14:53:02.618Z,99798.48
2018-12-08T14:55:31.028Z,99806.00
2018-12-08T15:00:45.558Z,99802.89
2018-12-08T15:03:14.087Z,99801.91
2018-12-08T15:05:42.552Z,99803.22
2018-12-08T15:08:10.925Z,99809.11
2018-12-08T15:10:39.365Z,99810.07
2018-12-08T15:13:09.011Z,99816.78
2018-12-08T15:15:37.392Z,99811.73
2018-12-08T15:18:05.823Z,99803.21
2018-12-08T15:20:34.581Z,99807.62
2018-12-08T15:25:45.090Z,99797.17
2018-12-08T15:28:13.523Z,99790.31
2018-12-08T15:30:41.988Z,99791.30
2018-12-08T15:33:10.813Z,99787.20
2018-12-08T15:35:39.483Z,99785.75
2018-12-08T15:38:08.051Z,99793.42
2018-12-08T15:40:36.510Z,99792.92
2018-12-08T15:43:04.938Z,99804.69
2018-12-08T15:45:33.470Z,99799.46
2018-12-08T15:48:02.608Z,99797.02
2018-12-08T15:50:31.359Z,99802.58
2018-12-08T15:52:59.724Z,99804.52
2018-12-08T15:55:28.757Z,99791.94
2018-12-08T16:00:39.514Z,99795.22
2018-12-08T16:05:50.853Z,99799.95
2018-12-08T16:08:19.458Z,99798.33
2018-12-08T16:10:48.246Z,99801.61
2018-12-08T16:13:17.668Z,99804.05
2018-12-08T16:15:46.280Z,99804.55
2018-12-08T16:20:57.349Z,99801.11
2018-12-08T16:23:25.811Z,99797.36
2018-12-08T16:25:54.388Z,99789.38
2018-12-08T16:28:23.144Z,99774.01
2018-12-08T16:33:33.724Z,99762.88
2018-12-08T16:36:02.381Z,99758.81
2018-12-08T16:41:13.400Z,99743.30
2018-12-08T16:43:42.898Z,99748.70
2018-12-08T16:46:11.543Z,99742.66
2018-12-08T16:48:40.367Z,99745.10
2018-12-08T16:53:51.182Z,99742.31
2018-12-08T16:56:19.730Z,99739.84
2018-12-08T16:58:48.319Z,99729.24
2018-12-08T17:01:16.861Z,99733.48
2018-12-08T17:03:45.523Z,99724.33
2018-12-08T17:08:56.349Z,99715.64
2018-12-08T17:11:24.990Z,99706.81
2018-12-08T17:16:36.423Z,99698.83
2018-12-08T17:19:05.668Z,99699.46
2018-12-08T17:21:34.853Z,99696.00
2018-12-08T17:24:03.668Z,99676.74
2018-12-08T17:29:14.308Z,99680.17
2018-12-08T17:31:43.047Z,99676.07
2018-12-08T17:36:53.663Z,99669.17
2018-12-08T17:39:22.760Z,99664.12
2018-12-08T17:41:51.989Z,99670.80
2018-12-08T17:44:20.799Z,99653.80
2018-12-08T17:46:49.594Z,99652.31
2018-12-08T17:49:19.654Z,99654.92
2018-12-08T17:51:48.213Z,99654.28
2018-12-08T17:56:57.893Z,99640.39
2018-12-08T17:59:26.484Z,99634.32
2018-12-08T18:01:55.107Z,99633.19
2018-12-08T18:04:31.870Z,99624.08
2018-12-08T18:09:45.504Z,99609.08
2018-12-08T18:12:14.058Z,99608.41
2018-12-08T18:17:22.051Z,99598.48
2018-12-08T18:19:50.450Z,99595.38
2018-12-08T18:22:19.241Z,99589.03
2018-12-08T18:24:48.002Z,99576.95
2018-12-08T18:27:16.552Z,99578.12
2018-12-08T18:29:44.895Z,99575.50
2018-12-08T18:32:13.385Z,99573.70
2018-12-08T18:34:41.856Z,99564.24
2018-12-08T18:37:10.454Z,99548.73
2018-12-08T18:39:39.248Z,99537.94
2018-12-08T18:42:08.049Z,99532.24
2018-12-08T18:44:36.793Z,99524.40
2018-12-08T18:47:05.023Z,99512.95
2018-12-08T18:49:33.878Z,99507.05
2018-12-08T18:52:02.858Z,99494.61
2018-12-08T18:54:31.568Z,99483.16
2018-12-08T18:57:00.066Z,99478.91
2018-12-08T18:59:28.898Z,99471.88
2018-12-08T19:01:57.544Z,99482.47
2018-12-08T19:04:27.216Z,99478.53
2018-12-08T19:06:56.011Z,99478.17
2018-12-08T19:09:24.747Z,99470.00
2018-12-08T19:11:53.619Z,99461.97
2018-12-08T19:14:22.056Z,99457.22
2018-12-08T19:16:50.996Z,99448.38
2018-12-08T19:19:19.467Z,99434.31
2018-12-08T19:21:47.947Z,99442.78
2018-12-08T19:24:16.692Z,99438.03
2018-12-08T19:29:27.088Z,99438.84
2018-12-08T19:31:56.074Z,99430.31
2018-12-08T19:34:24.505Z,99434.23
2018-12-08T19:36:52.937Z,99422.16
2018-12-08T19:39:21.605Z,99423.80
2018-12-08T19:41:49.990Z,99423.95
2018-12-08T19:44:18.698Z,99413.19
2018-12-08T19:46:47.437Z,99403.66
2018-12-08T19:49:15.950Z,99401.86
2018-12-08T19:51:44.466Z,99392.70
2018-12-08T19:56:55.023Z,99375.58
2018-12-08T19:59:23.557Z,99379.50
2018-12-08T20:01:52.059Z,99373.27
2018-12-08T20:04:20.523Z,99364.74
2018-12-08T20:09:31.380Z,99359.02
2018-12-08T20:12:00.042Z,99356.74
2018-12-08T20:14:29.582Z,99349.33
2018-12-08T20:16:58.460Z,99360.91
2018-12-08T20:19:26.922Z,99343.27
2018-12-08T20:24:39.397Z,99346.81
2018-12-08T20:27:07.911Z,99325.85
2018-12-08T20:29:36.816Z,99302.81
2018-12-08T20:32:05.026Z,99316.51
2018-12-08T20:34:33.755Z,99304.36
2018-12-08T20:37:02.287Z,99301.90
2018-12-08T20:39:30.790Z,99293.36
2018-12-08T20:41:59.785Z,99284.66
2018-12-08T20:44:28.357Z,99268.39
2018-12-08T20:46:56.903Z,99251.70
2018-12-08T20:49:26.929Z,99236.14
2018-12-08T20:51:55.362Z,99252.46
2018-12-08T20:54:24.148Z,99232.14
2018-12-08T20:56:52.700Z,99229.03
2018-12-08T20:59:21.344Z,99225.10
2018-12-08T21:01:49.911Z,99215.63
2018-12-08T21:04:18.426Z,99207.59
2018-12-08T21:06:46.923Z,99210.05
2018-12-08T21:09:15.518Z,99198.08
2018-12-08T21:11:44.715Z,99189.34
2018-12-08T21:16:55.436Z,99176.20
2018-12-08T21:19:24.919Z,99165.05
2018-12-08T21:21:53.526Z,99157.19
2018-12-08T21:24:22.216Z,99167.80
2018-12-08T21:29:32.158Z,99158.86
2018-12-08T21:32:00.911Z,99158.39
2018-12-08T21:34:29.568Z,99155.13
2018-12-08T21:36:58.116Z,99158.56
2018-12-08T21:39:26.656Z,99151.20
2018-12-08T21:44:36.984Z,99123.91
2018-12-08T21:47:06.681Z,99129.15
2018-12-08T21:49:35.893Z,99115.25
2018-12-08T21:52:04.309Z,99115.56
2018-12-08T21:57:14.555Z,99100.97
2018-12-08T21:59:43.218Z,99081.78
2018-12-08T22:04:53.630Z,99075.84
2018-12-08T22:07:22.112Z,99065.17
2018-12-08T22:09:50.599Z,99048.66
2018-12-08T22:12:19.156Z,99046.34
2018-12-08T22:17:44.195Z,99046.59
2018-12-08T22:20:14.244Z,99037.73
2018-12-08T22:25:24.716Z,99013.09
2018-12-08T22:27:53.168Z,99019.27
2018-12-08T22:30:21.595Z,99013.33
2018-12-08T22:32:50.187Z,99018.06
2018-12-08T22:38:00.861Z,99008.33
2018-12-08T22:40:29.360Z,98991.84
2018-12-08T22:45:39.724Z,98989.94
2018-12-08T22:48:08.394Z,98994.63
2018-12-08T22:50:37.092Z,98988.19
2018-12-08T22:53:05.545Z,98975.62
2018-12-08T22:55:33.985Z,98978.37
2018-12-08T23:00:51.195Z,98961.16
2018-12-08T23:03:19.971Z,98972.84
2018-12-08T23:08:30.539Z,98959.36
2018-12-08T23:10:59.123Z,98978.11
2018-12-08T23:16:09.825Z,98984.58
2018-12-08T23:18:38.813Z,98988.31
2018-12-08T23:21:07.365Z,98999.30
2018-12-08T23:23:35.872Z,98995.06
2018-12-08T23:26:04.613Z,98996.68
2018-12-08T23:28:33.241Z,98994.77
2018-12-08T23:33:43.280Z,99003.13
2018-12-08T23:36:12.008Z,98991.64
2018-12-08T23:38:40.604Z,98998.90
2018-12-08T23:41:09.438Z,99008.45
2018-12-08T23:43:37.881Z,99012.78
2018-12-08T23:46:06.307Z,99021.33
2018-12-08T23:48:38.536Z,99003.69
2018-12-08T23:51:06.935Z,99013.87
2018-12-08T23:53:35.368Z,98999.02
2018-12-08T23:56:03.836Z,99002.85
2018-12-08T23:58:32.241Z,98993.69
